sensor_id;sensor_type;location;lat;lon;timestamp;P1;durP1;ratioP1;P2;durP2;ratioP2
42704;SDS011;28342;42.594;23.414;2023-04-01T00:02:00;11.68;;;4.93;;
42704;SDS011;28342;42.594;23.414;2023-04-01T00:04:26;12.30;;;5.00;;
42704;SDS011;28342;42.594;23.414;2023-04-01T00:06:51;11.48;;;5.90;;
42704;SDS011;28342;42.594;23.414;2023-04-01T00:09:17;15.98;;;5.78;;
42704;SDS011;28342;42.594;23.414;2023-04-01T00:11:42;16.70;;;5.93;;
42704;SDS011;28342;42.594;23.414;2023-04-01T00:14:09;11.63;;;5.57;;
42704;SDS011;28342;42.594;23.414;2023-04-01T00:16:35;10.63;;;5.80;;
42704;SDS011;28342;42.594;23.414;2023-04-01T00:19:01;10.30;;;5.90;;
42704;SDS011;28342;42.594;23.414;2023-04-01T00:21:26;9.88;;;4.85;;
42704;SDS011;28342;42.594;23.414;2023-04-01T00:23:52;15.23;;;6.13;;
42704;SDS011;28342;42.594;23.414;2023-04-01T00:26:18;8.57;;;5.03;;
42704;SDS011;28342;42.594;23.414;2023-04-01T00:28:46;15.23;;;5.72;;
42704;SDS011;28342;42.594;23.414;2023-04-01T00:31:12;12.13;;;5.35;;
42704;SDS011;28342;42.594;23.414;2023-04-01T00:33:38;9.75;;;5.10;;
42704;SDS011;28342;42.594;23.414;2023-04-01T00:36:16;12.95;;;5.65;;
42704;SDS011;28342;42.594;23.414;2023-04-01T00:38:43;9.20;;;5.00;;
42704;SDS011;28342;42.594;23.414;2023-04-01T00:41:11;11.55;;;5.80;;
42704;SDS011;28342;42.594;23.414;2023-04-01T00:43:45;10.23;;;5.43;;
42704;SDS011;28342;42.594;23.414;2023-04-01T00:46:12;11.18;;;5.53;;
42704;SDS011;28342;42.594;23.414;2023-04-01T00:48:38;11.40;;;5.30;;
42704;SDS011;28342;42.594;23.414;2023-04-01T00:51:09;16.58;;;6.57;;
42704;SDS011;28342;42.594;23.414;2023-04-01T00:53:49;9.95;;;5.45;;
42704;SDS011;28342;42.594;23.414;2023-04-01T00:59:16;13.57;;;6.43;;
42704;SDS011;28342;42.594;23.414;2023-04-01T01:01:46;12.80;;;5.60;;
42704;SDS011;28342;42.594;23.414;2023-04-01T01:04:22;10.73;;;6.00;;
42704;SDS011;28342;42.594;23.414;2023-04-01T01:10:11;13.07;;;5.63;;
42704;SDS011;28342;42.594;23.414;2023-04-01T01:13:02;14.70;;;6.07;;
42704;SDS011;28342;42.594;23.414;2023-04-01T01:15:44;11.82;;;6.40;;
42704;SDS011;28342;42.594;23.414;2023-04-01T01:29:26;16.00;;;6.22;;
42704;SDS011;28342;42.594;23.414;2023-04-01T01:37:46;15.07;;;5.55;;
42704;SDS011;28342;42.594;23.414;2023-04-01T01:40:17;14.70;;;8.70;;
42704;SDS011;28342;42.594;23.414;2023-04-01T01:42:44;15.75;;;8.75;;
42704;SDS011;28342;42.594;23.414;2023-04-01T01:45:14;19.10;;;7.43;;
42704;SDS011;28342;42.594;23.414;2023-04-01T01:47:42;15.90;;;6.20;;
42704;SDS011;28342;42.594;23.414;2023-04-01T01:50:10;13.73;;;5.32;;
42704;SDS011;28342;42.594;23.414;2023-04-01T01:52:36;12.77;;;4.95;;
42704;SDS011;28342;42.594;23.414;2023-04-01T01:55:02;13.90;;;6.88;;
42704;SDS011;28342;42.594;23.414;2023-04-01T01:57:29;17.98;;;7.22;;
42704;SDS011;28342;42.594;23.414;2023-04-01T02:00:04;15.15;;;6.88;;
42704;SDS011;28342;42.594;23.414;2023-04-01T02:02:41;13.43;;;5.43;;
42704;SDS011;28342;42.594;23.414;2023-04-01T02:05:15;12.07;;;5.43;;
42704;SDS011;28342;42.594;23.414;2023-04-01T02:07:46;10.93;;;6.03;;
42704;SDS011;28342;42.594;23.414;2023-04-01T02:10:18;14.20;;;5.18;;
42704;SDS011;28342;42.594;23.414;2023-04-01T02:12:47;12.60;;;5.57;;
42704;SDS011;28342;42.594;23.414;2023-04-01T02:15:14;19.58;;;5.22;;
42704;SDS011;28342;42.594;23.414;2023-04-01T02:17:43;11.98;;;4.97;;
42704;SDS011;28342;42.594;23.414;2023-04-01T02:22:43;11.35;;;5.53;;
42704;SDS011;28342;42.594;23.414;2023-04-01T02:25:14;13.65;;;5.40;;
42704;SDS011;28342;42.594;23.414;2023-04-01T02:27:43;15.57;;;6.07;;
42704;SDS011;28342;42.594;23.414;2023-04-01T02:30:11;13.20;;;6.03;;
42704;SDS011;28342;42.594;23.414;2023-04-01T02:32:38;11.57;;;4.40;;
42704;SDS011;28342;42.594;23.414;2023-04-01T02:35:06;11.45;;;4.90;;
42704;SDS011;28342;42.594;23.414;2023-04-01T02:37:33;8.90;;;4.72;;
42704;SDS011;28342;42.594;23.414;2023-04-01T02:40:03;18.20;;;6.38;;
42704;SDS011;28342;42.594;23.414;2023-04-01T02:42:32;11.38;;;5.30;;
42704;SDS011;28342;42.594;23.414;2023-04-01T02:44:58;13.63;;;4.93;;
42704;SDS011;28342;42.594;23.414;2023-04-01T02:47:24;14.18;;;5.70;;
42704;SDS011;28342;42.594;23.414;2023-04-01T02:49:50;13.10;;;5.68;;
42704;SDS011;28342;42.594;23.414;2023-04-01T02:52:15;13.40;;;5.28;;
42704;SDS011;28342;42.594;23.414;2023-04-01T02:54:41;9.32;;;4.70;;
42704;SDS011;28342;42.594;23.414;2023-04-01T02:57:06;15.10;;;4.07;;
42704;SDS011;28342;42.594;23.414;2023-04-01T02:59:32;16.40;;;5.03;;
42704;SDS011;28342;42.594;23.414;2023-04-01T03:01:57;13.23;;;4.65;;
42704;SDS011;28342;42.594;23.414;2023-04-01T03:04:23;13.02;;;4.53;;
42704;SDS011;28342;42.594;23.414;2023-04-01T03:06:48;9.20;;;4.30;;
42704;SDS011;28342;42.594;23.414;2023-04-01T03:09:14;11.80;;;5.25;;
42704;SDS011;28342;42.594;23.414;2023-04-01T03:11:41;11.23;;;3.80;;
42704;SDS011;28342;42.594;23.414;2023-04-01T03:14:06;15.88;;;4.60;;
42704;SDS011;28342;42.594;23.414;2023-04-01T03:16:32;11.38;;;4.75;;
42704;SDS011;28342;42.594;23.414;2023-04-01T03:18:57;7.97;;;3.38;;
42704;SDS011;28342;42.594;23.414;2023-04-01T03:21:24;13.05;;;3.38;;
42704;SDS011;28342;42.594;23.414;2023-04-01T03:23:50;11.85;;;4.30;;
42704;SDS011;28342;42.594;23.414;2023-04-01T03:26:17;8.13;;;3.08;;
42704;SDS011;28342;42.594;23.414;2023-04-01T03:28:43;13.57;;;4.28;;
42704;SDS011;28342;42.594;23.414;2023-04-01T03:31:08;10.40;;;4.13;;
42704;SDS011;28342;42.594;23.414;2023-04-01T03:33:34;7.25;;;4.18;;
42704;SDS011;28342;42.594;23.414;2023-04-01T03:36:00;13.85;;;4.50;;
42704;SDS011;28342;42.594;23.414;2023-04-01T03:38:25;11.90;;;4.90;;
42704;SDS011;28342;42.594;23.414;2023-04-01T03:40:51;13.32;;;5.55;;
42704;SDS011;28342;42.594;23.414;2023-04-01T03:43:16;13.60;;;5.70;;
42704;SDS011;28342;42.594;23.414;2023-04-01T03:45:45;11.35;;;5.07;;
42704;SDS011;28342;42.594;23.414;2023-04-01T03:48:14;14.40;;;6.10;;
42704;SDS011;28342;42.594;23.414;2023-04-01T03:50:40;11.90;;;5.47;;
42704;SDS011;28342;42.594;23.414;2023-04-01T03:53:06;10.13;;;4.68;;
42704;SDS011;28342;42.594;23.414;2023-04-01T03:55:31;13.23;;;4.95;;
42704;SDS011;28342;42.594;23.414;2023-04-01T03:57:57;14.85;;;5.00;;
42704;SDS011;28342;42.594;23.414;2023-04-01T04:00:22;7.80;;;3.88;;
42704;SDS011;28342;42.594;23.414;2023-04-01T04:02:48;15.32;;;4.63;;
42704;SDS011;28342;42.594;23.414;2023-04-01T04:05:14;15.90;;;5.00;;
42704;SDS011;28342;42.594;23.414;2023-04-01T04:07:39;11.88;;;4.00;;
42704;SDS011;28342;42.594;23.414;2023-04-01T04:10:05;11.00;;;4.05;;
42704;SDS011;28342;42.594;23.414;2023-04-01T04:12:31;18.67;;;5.38;;
42704;SDS011;28342;42.594;23.414;2023-04-01T04:14:57;20.60;;;7.25;;
42704;SDS011;28342;42.594;23.414;2023-04-01T04:17:22;15.15;;;5.03;;
42704;SDS011;28342;42.594;23.414;2023-04-01T04:19:48;13.55;;;4.85;;
42704;SDS011;28342;42.594;23.414;2023-04-01T04:22:13;11.70;;;4.80;;
42704;SDS011;28342;42.594;23.414;2023-04-01T04:24:38;10.95;;;5.15;;
42704;SDS011;28342;42.594;23.414;2023-04-01T04:27:04;9.63;;;5.05;;
42704;SDS011;28342;42.594;23.414;2023-04-01T04:29:30;12.02;;;4.65;;
42704;SDS011;28342;42.594;23.414;2023-04-01T04:31:55;15.88;;;5.57;;
42704;SDS011;28342;42.594;23.414;2023-04-01T04:34:21;13.85;;;4.70;;
42704;SDS011;28342;42.594;23.414;2023-04-01T04:36:47;11.32;;;5.00;;
42704;SDS011;28342;42.594;23.414;2023-04-01T04:39:13;16.17;;;5.18;;
42704;SDS011;28342;42.594;23.414;2023-04-01T04:41:39;12.45;;;4.72;;
42704;SDS011;28342;42.594;23.414;2023-04-01T04:44:05;15.52;;;5.35;;
42704;SDS011;28342;42.594;23.414;2023-04-01T04:46:30;12.52;;;3.85;;
42704;SDS011;28342;42.594;23.414;2023-04-01T04:48:56;13.35;;;3.10;;
42704;SDS011;28342;42.594;23.414;2023-04-01T04:51:22;7.60;;;2.00;;
42704;SDS011;28342;42.594;23.414;2023-04-01T04:53:55;13.40;;;2.75;;
42704;SDS011;28342;42.594;23.414;2023-04-01T04:56:23;6.28;;;2.33;;
42704;SDS011;28342;42.594;23.414;2023-04-01T04:58:51;4.05;;;1.98;;
42704;SDS011;28342;42.594;23.414;2023-04-01T05:01:17;8.60;;;1.80;;
42704;SDS011;28342;42.594;23.414;2023-04-01T05:03:43;5.63;;;1.90;;
42704;SDS011;28342;42.594;23.414;2023-04-01T05:06:09;7.45;;;2.35;;
42704;SDS011;28342;42.594;23.414;2023-04-01T05:08:37;5.03;;;2.00;;
42704;SDS011;28342;42.594;23.414;2023-04-01T05:11:06;5.70;;;1.58;;
42704;SDS011;28342;42.594;23.414;2023-04-01T05:13:34;10.20;;;2.20;;
42704;SDS011;28342;42.594;23.414;2023-04-01T05:16:00;6.63;;;2.15;;
42704;SDS011;28342;42.594;23.414;2023-04-01T05:18:25;8.68;;;3.00;;
42704;SDS011;28342;42.594;23.414;2023-04-01T05:20:52;10.70;;;2.85;;
42704;SDS011;28342;42.594;23.414;2023-04-01T05:23:19;9.65;;;2.38;;
42704;SDS011;28342;42.594;23.414;2023-04-01T05:25:46;7.22;;;2.42;;
42704;SDS011;28342;42.594;23.414;2023-04-01T05:28:17;7.80;;;2.00;;
42704;SDS011;28342;42.594;23.414;2023-04-01T05:30:44;5.47;;;2.00;;
42704;SDS011;28342;42.594;23.414;2023-04-01T05:33:10;5.68;;;2.03;;
42704;SDS011;28342;42.594;23.414;2023-04-01T05:35:37;8.90;;;2.40;;
42704;SDS011;28342;42.594;23.414;2023-04-01T05:38:03;5.63;;;2.10;;
42704;SDS011;28342;42.594;23.414;2023-04-01T05:40:29;10.95;;;2.40;;
42704;SDS011;28342;42.594;23.414;2023-04-01T05:42:55;7.32;;;2.53;;
42704;SDS011;28342;42.594;23.414;2023-04-01T05:45:21;7.10;;;1.88;;
42704;SDS011;28342;42.594;23.414;2023-04-01T05:47:49;11.13;;;2.13;;
42704;SDS011;28342;42.594;23.414;2023-04-01T05:50:14;18.63;;;2.67;;
42704;SDS011;28342;42.594;23.414;2023-04-01T05:52:40;4.85;;;1.60;;
42704;SDS011;28342;42.594;23.414;2023-04-01T05:55:06;9.32;;;1.98;;
42704;SDS011;28342;42.594;23.414;2023-04-01T05:57:32;8.88;;;1.73;;
42704;SDS011;28342;42.594;23.414;2023-04-01T05:59:57;5.20;;;1.90;;
42704;SDS011;28342;42.594;23.414;2023-04-01T06:02:23;9.15;;;2.33;;
42704;SDS011;28342;42.594;23.414;2023-04-01T06:04:48;6.45;;;2.00;;
42704;SDS011;28342;42.594;23.414;2023-04-01T06:07:15;5.97;;;1.88;;
42704;SDS011;28342;42.594;23.414;2023-04-01T06:09:43;9.60;;;1.98;;
42704;SDS011;28342;42.594;23.414;2023-04-01T06:15:02;13.93;;;2.30;;
42704;SDS011;28342;42.594;23.414;2023-04-01T06:32:00;10.88;;;2.10;;
42704;SDS011;28342;42.594;23.414;2023-04-01T06:55:38;17.30;;;4.47;;
42704;SDS011;28342;42.594;23.414;2023-04-01T06:58:11;13.77;;;5.05;;
42704;SDS011;28342;42.594;23.414;2023-04-01T07:00:54;17.65;;;4.65;;
42704;SDS011;28342;42.594;23.414;2023-04-01T07:03:30;14.93;;;5.20;;
42704;SDS011;28342;42.594;23.414;2023-04-01T07:06:10;17.73;;;5.03;;
42704;SDS011;28342;42.594;23.414;2023-04-01T07:08:42;13.40;;;4.93;;
42704;SDS011;28342;42.594;23.414;2023-04-01T07:11:10;14.63;;;4.85;;
42704;SDS011;28342;42.594;23.414;2023-04-01T07:13:55;20.30;;;6.53;;
42704;SDS011;28342;42.594;23.414;2023-04-01T07:16:34;14.82;;;5.53;;
42704;SDS011;28342;42.594;23.414;2023-04-01T07:19:08;16.27;;;5.70;;
42704;SDS011;28342;42.594;23.414;2023-04-01T07:21:43;17.98;;;5.18;;
42704;SDS011;28342;42.594;23.414;2023-04-01T07:26:52;16.92;;;5.28;;
42704;SDS011;28342;42.594;23.414;2023-04-01T07:29:20;16.35;;;6.25;;
42704;SDS011;28342;42.594;23.414;2023-04-01T07:45:52;14.75;;;5.72;;
42704;SDS011;28342;42.594;23.414;2023-04-01T07:53:59;11.52;;;5.80;;
42704;SDS011;28342;42.594;23.414;2023-04-01T07:59:05;17.50;;;6.07;;
42704;SDS011;28342;42.594;23.414;2023-04-01T08:07:43;15.25;;;6.00;;
42704;SDS011;28342;42.594;23.414;2023-04-01T08:13:48;11.32;;;5.50;;
42704;SDS011;28342;42.594;23.414;2023-04-01T08:16:09;18.07;;;5.53;;
42704;SDS011;28342;42.594;23.414;2023-04-01T08:21:28;12.68;;;5.40;;
42704;SDS011;28342;42.594;23.414;2023-04-01T08:27:06;31.92;;;6.60;;
42704;SDS011;28342;42.594;23.414;2023-04-01T08:30:04;20.67;;;5.18;;
42704;SDS011;28342;42.594;23.414;2023-04-01T08:32:41;14.73;;;5.22;;
42704;SDS011;28342;42.594;23.414;2023-04-01T08:37:57;17.70;;;5.15;;
42704;SDS011;28342;42.594;23.414;2023-04-01T08:52:10;15.98;;;5.07;;
42704;SDS011;28342;42.594;23.414;2023-04-01T08:54:57;14.48;;;5.28;;
42704;SDS011;28342;42.594;23.414;2023-04-01T09:00:30;11.80;;;4.72;;
42704;SDS011;28342;42.594;23.414;2023-04-01T09:34:52;13.50;;;4.45;;
42704;SDS011;28342;42.594;23.414;2023-04-01T09:40:35;13.75;;;4.72;;
42704;SDS011;28342;42.594;23.414;2023-04-01T10:00:06;8.40;;;3.72;;
42704;SDS011;28342;42.594;23.414;2023-04-01T10:11:41;12.93;;;4.13;;
42704;SDS011;28342;42.594;23.414;2023-04-01T10:17:08;10.52;;;3.95;;
42704;SDS011;28342;42.594;23.414;2023-04-01T10:27:43;11.45;;;3.88;;
42704;SDS011;28342;42.594;23.414;2023-04-01T10:34:18;10.80;;;4.47;;
42704;SDS011;28342;42.594;23.414;2023-04-01T10:36:21;15.35;;;3.92;;
42704;SDS011;28342;42.594;23.414;2023-04-01T10:50:19;9.52;;;2.60;;
42704;SDS011;28342;42.594;23.414;2023-04-01T10:53:10;14.57;;;2.70;;
42704;SDS011;28342;42.594;23.414;2023-04-01T11:20:45;5.72;;;2.10;;
42704;SDS011;28342;42.594;23.414;2023-04-01T11:26:09;8.75;;;1.90;;
42704;SDS011;28342;42.594;23.414;2023-04-01T11:44:33;6.22;;;2.13;;
42704;SDS011;28342;42.594;23.414;2023-04-01T11:52:59;7.97;;;2.17;;
42704;SDS011;28342;42.594;23.414;2023-04-01T12:13:04;10.87;;;3.87;;
42704;SDS011;28342;42.594;23.414;2023-04-01T12:26:45;10.25;;;2.92;;
42704;SDS011;28342;42.594;23.414;2023-04-01T12:31:47;5.88;;;2.72;;
42704;SDS011;28342;42.594;23.414;2023-04-01T12:51:20;8.73;;;3.00;;
42704;SDS011;28342;42.594;23.414;2023-04-01T12:54:07;12.68;;;3.25;;
42704;SDS011;28342;42.594;23.414;2023-04-01T12:56:50;8.65;;;3.25;;
42704;SDS011;28342;42.594;23.414;2023-04-01T12:59:53;7.10;;;3.92;;
42704;SDS011;28342;42.594;23.414;2023-04-01T13:16:19;13.70;;;6.85;;
42704;SDS011;28342;42.594;23.414;2023-04-01T13:19:03;11.00;;;5.45;;
42704;SDS011;28342;42.594;23.414;2023-04-01T13:27:55;3.97;;;2.35;;
42704;SDS011;28342;42.594;23.414;2023-04-01T13:46:21;7.65;;;4.30;;
42704;SDS011;28342;42.594;23.414;2023-04-01T14:08:34;5.75;;;1.55;;
42704;SDS011;28342;42.594;23.414;2023-04-01T14:16:32;5.80;;;2.50;;
42704;SDS011;28342;42.594;23.414;2023-04-01T14:19:23;5.00;;;2.55;;
42704;SDS011;28342;42.594;23.414;2023-04-01T14:31:08;5.68;;;1.80;;
42704;SDS011;28342;42.594;23.414;2023-04-01T14:34:00;2.60;;;1.57;;
42704;SDS011;28342;42.594;23.414;2023-04-01T14:45:36;6.15;;;1.70;;
42704;SDS011;28342;42.594;23.414;2023-04-01T14:51:16;6.18;;;1.85;;
42704;SDS011;28342;42.594;23.414;2023-04-01T14:53:44;5.78;;;2.90;;
42704;SDS011;28342;42.594;23.414;2023-04-01T14:56:37;5.63;;;2.88;;
42704;SDS011;28342;42.594;23.414;2023-04-01T14:59:48;4.97;;;3.00;;
42704;SDS011;28342;42.594;23.414;2023-04-01T15:13:13;8.40;;;3.08;;
42704;SDS011;28342;42.594;23.414;2023-04-01T15:24:07;3.10;;;1.30;;
42704;SDS011;28342;42.594;23.414;2023-04-01T15:29:28;3.22;;;1.52;;
42704;SDS011;28342;42.594;23.414;2023-04-01T15:32:29;5.88;;;2.65;;
42704;SDS011;28342;42.594;23.414;2023-04-01T15:54:21;12.38;;;7.38;;
42704;SDS011;28342;42.594;23.414;2023-04-01T15:57:08;12.98;;;8.13;;
42704;SDS011;28342;42.594;23.414;2023-04-01T15:59:58;8.52;;;4.30;;
42704;SDS011;28342;42.594;23.414;2023-04-01T16:02:35;5.00;;;1.95;;
42704;SDS011;28342;42.594;23.414;2023-04-01T16:07:46;4.47;;;2.33;;
42704;SDS011;28342;42.594;23.414;2023-04-01T16:26:37;11.18;;;5.43;;
42704;SDS011;28342;42.594;23.414;2023-04-01T16:29:10;13.40;;;4.75;;
42704;SDS011;28342;42.594;23.414;2023-04-01T16:31:52;7.60;;;4.05;;
42704;SDS011;28342;42.594;23.414;2023-04-01T16:34:44;5.68;;;3.83;;
42704;SDS011;28342;42.594;23.414;2023-04-01T16:37:22;6.47;;;3.72;;
42704;SDS011;28342;42.594;23.414;2023-04-01T16:43:14;6.13;;;2.60;;
42704;SDS011;28342;42.594;23.414;2023-04-01T16:48:15;3.58;;;2.58;;
42704;SDS011;28342;42.594;23.414;2023-04-01T16:56:24;3.47;;;2.40;;
42704;SDS011;28342;42.594;23.414;2023-04-01T17:04:24;3.30;;;2.22;;
42704;SDS011;28342;42.594;23.414;2023-04-01T17:12:39;2.55;;;2.00;;
42704;SDS011;28342;42.594;23.414;2023-04-01T17:15:21;4.18;;;1.95;;
42704;SDS011;28342;42.594;23.414;2023-04-01T17:18:23;3.15;;;2.28;;
42704;SDS011;28342;42.594;23.414;2023-04-01T17:24:00;2.23;;;1.40;;
42704;SDS011;28342;42.594;23.414;2023-04-01T17:26:51;4.25;;;1.98;;
42704;SDS011;28342;42.594;23.414;2023-04-01T17:29:33;2.25;;;1.65;;
42704;SDS011;28342;42.594;23.414;2023-04-01T17:32:28;1.33;;;1.20;;
42704;SDS011;28342;42.594;23.414;2023-04-01T17:37:42;4.13;;;1.52;;
42704;SDS011;28342;42.594;23.414;2023-04-01T17:40:25;2.10;;;1.50;;
42704;SDS011;28342;42.594;23.414;2023-04-01T17:43:07;1.67;;;1.38;;
42704;SDS011;28342;42.594;23.414;2023-04-01T18:17:54;2.92;;;1.95;;
42704;SDS011;28342;42.594;23.414;2023-04-01T18:20:40;2.95;;;1.90;;
42704;SDS011;28342;42.594;23.414;2023-04-01T18:26:28;1.20;;;1.10;;
42704;SDS011;28342;42.594;23.414;2023-04-01T18:28:32;3.97;;;1.40;;
42704;SDS011;28342;42.594;23.414;2023-04-01T18:31:09;2.75;;;1.70;;
42704;SDS011;28342;42.594;23.414;2023-04-01T18:39:12;2.38;;;2.08;;
42704;SDS011;28342;42.594;23.414;2023-04-01T18:43:02;2.67;;;2.33;;
42704;SDS011;28342;42.594;23.414;2023-04-01T18:51:11;2.47;;;1.83;;
42704;SDS011;28342;42.594;23.414;2023-04-01T18:53:44;2.08;;;1.85;;
42704;SDS011;28342;42.594;23.414;2023-04-01T18:56:21;2.35;;;2.15;;
42704;SDS011;28342;42.594;23.414;2023-04-01T18:58:59;2.40;;;2.08;;
42704;SDS011;28342;42.594;23.414;2023-04-01T19:06:43;4.85;;;1.95;;
42704;SDS011;28342;42.594;23.414;2023-04-01T19:09:17;2.63;;;2.28;;
42704;SDS011;28342;42.594;23.414;2023-04-01T19:11:52;2.65;;;1.83;;
42704;SDS011;28342;42.594;23.414;2023-04-01T19:14:25;3.08;;;1.75;;
42704;SDS011;28342;42.594;23.414;2023-04-01T19:28:19;3.35;;;2.30;;
42704;SDS011;28342;42.594;23.414;2023-04-01T19:30:58;5.30;;;3.30;;
42704;SDS011;28342;42.594;23.414;2023-04-01T19:33:35;8.80;;;5.22;;
42704;SDS011;28342;42.594;23.414;2023-04-01T19:38:39;7.72;;;5.35;;
42704;SDS011;28342;42.594;23.414;2023-04-01T19:46:38;3.58;;;2.03;;
42704;SDS011;28342;42.594;23.414;2023-04-01T19:57:17;4.38;;;2.63;;
42704;SDS011;28342;42.594;23.414;2023-04-01T20:04:55;2.75;;;2.20;;
42704;SDS011;28342;42.594;23.414;2023-04-01T20:07:27;2.10;;;1.63;;
42704;SDS011;28342;42.594;23.414;2023-04-01T20:10:30;2.83;;;1.80;;
42704;SDS011;28342;42.594;23.414;2023-04-01T20:13:06;4.55;;;2.60;;
42704;SDS011;28342;42.594;23.414;2023-04-01T20:15:44;2.38;;;1.85;;
42704;SDS011;28342;42.594;23.414;2023-04-01T20:18:15;2.28;;;1.70;;
42704;SDS011;28342;42.594;23.414;2023-04-01T20:21:20;1.60;;;1.50;;
42704;SDS011;28342;42.594;23.414;2023-04-01T20:26:14;3.83;;;2.72;;
42704;SDS011;28342;42.594;23.414;2023-04-01T20:31:41;3.78;;;2.17;;
42704;SDS011;28342;42.594;23.414;2023-04-01T20:48:11;9.13;;;5.75;;
42704;SDS011;28342;42.594;23.414;2023-04-01T20:50:58;10.55;;;6.75;;
42704;SDS011;28342;42.594;23.414;2023-04-01T20:53:35;25.77;;;14.38;;
42704;SDS011;28342;42.594;23.414;2023-04-01T21:02:16;6.38;;;4.47;;
42704;SDS011;28342;42.594;23.414;2023-04-01T21:07:49;6.43;;;3.28;;
42704;SDS011;28342;42.594;23.414;2023-04-01T21:10:28;13.07;;;4.80;;
42704;SDS011;28342;42.594;23.414;2023-04-01T21:24:46;5.63;;;3.97;;
42704;SDS011;28342;42.594;23.414;2023-04-01T21:30:18;5.20;;;3.75;;
42704;SDS011;28342;42.594;23.414;2023-04-01T21:33:02;9.05;;;5.65;;
42704;SDS011;28342;42.594;23.414;2023-04-01T21:49:16;9.25;;;5.28;;
42704;SDS011;28342;42.594;23.414;2023-04-01T21:55:19;2.78;;;1.95;;
42704;SDS011;28342;42.594;23.414;2023-04-01T22:06:45;1.77;;;1.13;;
42704;SDS011;28342;42.594;23.414;2023-04-01T22:09:39;1.98;;;1.40;;
42704;SDS011;28342;42.594;23.414;2023-04-01T22:12:12;0.90;;;0.90;;
42704;SDS011;28342;42.594;23.414;2023-04-01T22:20:10;7.25;;;2.97;;
42704;SDS011;28342;42.594;23.414;2023-04-01T22:25:38;4.25;;;2.60;;
42704;SDS011;28342;42.594;23.414;2023-04-01T22:28:57;4.70;;;2.95;;
42704;SDS011;28342;42.594;23.414;2023-04-01T22:31:16;8.48;;;5.03;;
42704;SDS011;28342;42.594;23.414;2023-04-01T22:49:45;7.63;;;4.45;;
42704;SDS011;28342;42.594;23.414;2023-04-01T22:54:50;13.00;;;7.43;;
42704;SDS011;28342;42.594;23.414;2023-04-01T22:57:36;8.05;;;4.95;;
42704;SDS011;28342;42.594;23.414;2023-04-01T23:03:31;5.93;;;4.05;;
42704;SDS011;28342;42.594;23.414;2023-04-01T23:05:49;7.07;;;4.43;;
42704;SDS011;28342;42.594;23.414;2023-04-01T23:11:08;2.10;;;1.15;;
42704;SDS011;28342;42.594;23.414;2023-04-01T23:13:44;1.73;;;0.80;;
42704;SDS011;28342;42.594;23.414;2023-04-01T23:16:20;1.63;;;1.00;;
42704;SDS011;28342;42.594;23.414;2023-04-01T23:19:10;1.60;;;0.70;;
42704;SDS011;28342;42.594;23.414;2023-04-01T23:25:22;4.03;;;1.15;;
42704;SDS011;28342;42.594;23.414;2023-04-01T23:28:24;2.58;;;1.50;;
42704;SDS011;28342;42.594;23.414;2023-04-01T23:31:02;3.65;;;1.70;;
42704;SDS011;28342;42.594;23.414;2023-04-01T23:33:29;5.18;;;2.40;;
42704;SDS011;28342;42.594;23.414;2023-04-01T23:35:59;7.60;;;3.10;;
42704;SDS011;28342;42.594;23.414;2023-04-01T23:40:57;16.33;;;7.07;;
42704;SDS011;28342;42.594;23.414;2023-04-01T23:45:56;10.93;;;5.25;;
42704;SDS011;28342;42.594;23.414;2023-04-01T23:48:28;5.90;;;3.20;;
42704;SDS011;28342;42.594;23.414;2023-04-01T23:50:57;8.38;;;3.78;;
42704;SDS011;28342;42.594;23.414;2023-04-01T23:53:24;5.03;;;2.65;;
42704;SDS011;28342;42.594;23.414;2023-04-01T23:55:51;5.95;;;3.00;;
42704;SDS011;28342;42.594;23.414;2023-04-01T23:58:24;4.40;;;2.72;;
